sensor_id;sensor_type;location;lat;lon;timestamp;P1;durP1;ratioP1;P2;durP2;ratioP2
34657;SDS011;20865;43.312;27.152;2022-09-09T00:02:24;5.87;;;3.90;;
34657;SDS011;20865;43.312;27.152;2022-09-09T00:04:59;9.00;;;3.85;;
34657;SDS011;20865;43.312;27.152;2022-09-09T00:07:37;7.83;;;4.45;;
34657;SDS011;20865;43.312;27.152;2022-09-09T00:10:23;10.78;;;3.80;;
34657;SDS011;20865;43.312;27.152;2022-09-09T00:18:16;9.18;;;4.42;;
34657;SDS011;20865;43.312;27.152;2022-09-09T00:21:17;5.70;;;3.67;;
34657;SDS011;20865;43.312;27.152;2022-09-09T00:23:37;7.45;;;3.92;;
34657;SDS011;20865;43.312;27.152;2022-09-09T00:26:18;6.78;;;4.22;;
34657;SDS011;20865;43.312;27.152;2022-09-09T00:28:49;6.80;;;4.75;;
34657;SDS011;20865;43.312;27.152;2022-09-09T00:31:29;9.70;;;4.58;;
34657;SDS011;20865;43.312;27.152;2022-09-09T00:34:11;10.05;;;4.42;;
34657;SDS011;20865;43.312;27.152;2022-09-09T00:36:43;7.87;;;4.90;;
34657;SDS011;20865;43.312;27.152;2022-09-09T00:39:13;13.10;;;4.92;;
34657;SDS011;20865;43.312;27.152;2022-09-09T00:44:53;10.15;;;4.35;;
34657;SDS011;20865;43.312;27.152;2022-09-09T00:47:34;10.00;;;4.28;;
34657;SDS011;20865;43.312;27.152;2022-09-09T00:52:35;7.87;;;4.22;;
34657;SDS011;20865;43.312;27.152;2022-09-09T00:57:33;8.60;;;5.25;;
34657;SDS011;20865;43.312;27.152;2022-09-09T01:00:21;5.95;;;4.87;;
34657;SDS011;20865;43.312;27.152;2022-09-09T01:08:30;11.12;;;4.00;;
34657;SDS011;20865;43.312;27.152;2022-09-09T01:11:32;5.28;;;3.90;;
34657;SDS011;20865;43.312;27.152;2022-09-09T01:14:01;9.75;;;4.42;;
34657;SDS011;20865;43.312;27.152;2022-09-09T01:16:32;6.83;;;3.55;;
34657;SDS011;20865;43.312;27.152;2022-09-09T01:19:00;7.03;;;3.90;;
34657;SDS011;20865;43.312;27.152;2022-09-09T01:21:48;7.62;;;4.30;;
34657;SDS011;20865;43.312;27.152;2022-09-09T01:27:07;6.72;;;3.72;;
34657;SDS011;20865;43.312;27.152;2022-09-09T01:29:36;4.97;;;3.47;;
34657;SDS011;20865;43.312;27.152;2022-09-09T01:35:15;7.60;;;3.72;;
34657;SDS011;20865;43.312;27.152;2022-09-09T01:37:42;5.47;;;3.63;;
34657;SDS011;20865;43.312;27.152;2022-09-09T01:40:10;10.30;;;3.85;;
34657;SDS011;20865;43.312;27.152;2022-09-09T01:42:38;6.90;;;3.92;;
34657;SDS011;20865;43.312;27.152;2022-09-09T01:45:06;9.98;;;3.67;;
34657;SDS011;20865;43.312;27.152;2022-09-09T01:47:34;6.85;;;3.95;;
34657;SDS011;20865;43.312;27.152;2022-09-09T01:50:03;7.92;;;4.03;;
34657;SDS011;20865;43.312;27.152;2022-09-09T01:52:31;5.05;;;3.70;;
34657;SDS011;20865;43.312;27.152;2022-09-09T01:55:02;11.20;;;3.92;;
34657;SDS011;20865;43.312;27.152;2022-09-09T01:57:33;6.15;;;4.10;;
34657;SDS011;20865;43.312;27.152;2022-09-09T02:02:49;7.37;;;4.05;;
34657;SDS011;20865;43.312;27.152;2022-09-09T02:08:10;7.92;;;4.03;;
34657;SDS011;20865;43.312;27.152;2022-09-09T02:13:29;10.00;;;4.25;;
34657;SDS011;20865;43.312;27.152;2022-09-09T02:21:13;7.62;;;4.10;;
34657;SDS011;20865;43.312;27.152;2022-09-09T02:23:43;11.68;;;4.05;;
34657;SDS011;20865;43.312;27.152;2022-09-09T02:26:13;7.83;;;3.72;;
34657;SDS011;20865;43.312;27.152;2022-09-09T02:28:44;7.37;;;4.10;;
34657;SDS011;20865;43.312;27.152;2022-09-09T02:31:15;5.53;;;3.72;;
34657;SDS011;20865;43.312;27.152;2022-09-09T02:33:48;7.85;;;4.45;;
34657;SDS011;20865;43.312;27.152;2022-09-09T02:36:18;6.28;;;3.87;;
34657;SDS011;20865;43.312;27.152;2022-09-09T02:38:47;5.33;;;3.67;;
34657;SDS011;20865;43.312;27.152;2022-09-09T02:41:18;6.08;;;3.80;;
34657;SDS011;20865;43.312;27.152;2022-09-09T02:43:47;6.97;;;3.90;;
34657;SDS011;20865;43.312;27.152;2022-09-09T02:49:11;9.00;;;3.17;;
34657;SDS011;20865;43.312;27.152;2022-09-09T02:51:45;7.85;;;3.90;;
34657;SDS011;20865;43.312;27.152;2022-09-09T02:54:16;5.70;;;3.47;;
34657;SDS011;20865;43.312;27.152;2022-09-09T02:56:43;5.30;;;3.45;;
34657;SDS011;20865;43.312;27.152;2022-09-09T02:59:12;5.33;;;3.40;;
34657;SDS011;20865;43.312;27.152;2022-09-09T03:01:40;7.55;;;3.65;;
34657;SDS011;20865;43.312;27.152;2022-09-09T03:04:09;5.08;;;3.72;;
34657;SDS011;20865;43.312;27.152;2022-09-09T03:06:37;5.78;;;3.15;;
34657;SDS011;20865;43.312;27.152;2022-09-09T03:09:04;7.17;;;3.52;;
34657;SDS011;20865;43.312;27.152;2022-09-09T03:11:33;7.60;;;3.85;;
34657;SDS011;20865;43.312;27.152;2022-09-09T03:14:01;4.42;;;3.00;;
34657;SDS011;20865;43.312;27.152;2022-09-09T03:16:29;10.03;;;3.77;;
34657;SDS011;20865;43.312;27.152;2022-09-09T03:18:59;7.78;;;4.33;;
34657;SDS011;20865;43.312;27.152;2022-09-09T03:21:27;10.08;;;3.98;;
34657;SDS011;20865;43.312;27.152;2022-09-09T03:23:54;7.22;;;3.72;;
34657;SDS011;20865;43.312;27.152;2022-09-09T03:26:22;8.85;;;3.62;;
34657;SDS011;20865;43.312;27.152;2022-09-09T03:28:50;8.25;;;3.75;;
34657;SDS011;20865;43.312;27.152;2022-09-09T03:31:18;7.22;;;4.22;;
34657;SDS011;20865;43.312;27.152;2022-09-09T03:33:46;7.25;;;4.20;;
34657;SDS011;20865;43.312;27.152;2022-09-09T03:36:14;5.78;;;3.85;;
34657;SDS011;20865;43.312;27.152;2022-09-09T03:38:42;6.70;;;4.55;;
34657;SDS011;20865;43.312;27.152;2022-09-09T03:41:09;10.68;;;4.40;;
34657;SDS011;20865;43.312;27.152;2022-09-09T03:43:38;17.92;;;5.08;;
34657;SDS011;20865;43.312;27.152;2022-09-09T03:46:07;6.05;;;4.05;;
34657;SDS011;20865;43.312;27.152;2022-09-09T03:48:34;6.97;;;4.12;;
34657;SDS011;20865;43.312;27.152;2022-09-09T03:51:02;6.30;;;4.17;;
34657;SDS011;20865;43.312;27.152;2022-09-09T03:53:30;8.13;;;4.72;;
34657;SDS011;20865;43.312;27.152;2022-09-09T03:55:58;5.60;;;3.90;;
34657;SDS011;20865;43.312;27.152;2022-09-09T03:58:26;12.70;;;3.95;;
34657;SDS011;20865;43.312;27.152;2022-09-09T04:00:58;9.10;;;4.42;;
34657;SDS011;20865;43.312;27.152;2022-09-09T04:03:27;8.95;;;4.40;;
34657;SDS011;20865;43.312;27.152;2022-09-09T04:05:56;10.72;;;4.20;;
34657;SDS011;20865;43.312;27.152;2022-09-09T04:08:26;6.72;;;4.20;;
34657;SDS011;20865;43.312;27.152;2022-09-09T04:10:54;8.68;;;4.08;;
34657;SDS011;20865;43.312;27.152;2022-09-09T04:13:23;6.53;;;3.77;;
34657;SDS011;20865;43.312;27.152;2022-09-09T04:15:52;6.60;;;3.62;;
34657;SDS011;20865;43.312;27.152;2022-09-09T04:18:21;11.57;;;4.80;;
34657;SDS011;20865;43.312;27.152;2022-09-09T04:20:51;11.20;;;4.30;;
34657;SDS011;20865;43.312;27.152;2022-09-09T04:23:20;9.65;;;4.60;;
34657;SDS011;20865;43.312;27.152;2022-09-09T04:25:55;5.60;;;4.00;;
34657;SDS011;20865;43.312;27.152;2022-09-09T04:28:19;7.30;;;4.17;;
34657;SDS011;20865;43.312;27.152;2022-09-09T04:30:49;10.35;;;4.15;;
34657;SDS011;20865;43.312;27.152;2022-09-09T04:33:17;9.28;;;4.40;;
34657;SDS011;20865;43.312;27.152;2022-09-09T04:35:47;10.80;;;4.35;;
34657;SDS011;20865;43.312;27.152;2022-09-09T04:38:17;7.60;;;4.90;;
34657;SDS011;20865;43.312;27.152;2022-09-09T04:40:47;9.08;;;4.30;;
34657;SDS011;20865;43.312;27.152;2022-09-09T04:43:17;11.33;;;4.55;;
34657;SDS011;20865;43.312;27.152;2022-09-09T04:45:46;5.70;;;3.72;;
34657;SDS011;20865;43.312;27.152;2022-09-09T04:48:15;11.48;;;4.20;;
34657;SDS011;20865;43.312;27.152;2022-09-09T04:50:42;8.43;;;4.87;;
34657;SDS011;20865;43.312;27.152;2022-09-09T04:53:11;8.53;;;3.75;;
34657;SDS011;20865;43.312;27.152;2022-09-09T04:55:39;7.47;;;4.30;;
34657;SDS011;20865;43.312;27.152;2022-09-09T04:58:07;18.60;;;4.72;;
34657;SDS011;20865;43.312;27.152;2022-09-09T05:00:35;15.45;;;4.40;;
34657;SDS011;20865;43.312;27.152;2022-09-09T05:03:09;13.75;;;4.55;;
34657;SDS011;20865;43.312;27.152;2022-09-09T05:05:34;11.70;;;4.87;;
34657;SDS011;20865;43.312;27.152;2022-09-09T05:08:02;12.88;;;4.45;;
34657;SDS011;20865;43.312;27.152;2022-09-09T05:10:36;11.12;;;4.55;;
34657;SDS011;20865;43.312;27.152;2022-09-09T05:13:05;10.78;;;4.42;;
34657;SDS011;20865;43.312;27.152;2022-09-09T05:15:33;9.48;;;4.22;;
34657;SDS011;20865;43.312;27.152;2022-09-09T05:18:01;7.17;;;4.33;;
34657;SDS011;20865;43.312;27.152;2022-09-09T05:20:29;31.95;;;4.97;;
34657;SDS011;20865;43.312;27.152;2022-09-09T05:22:57;14.75;;;4.47;;
34657;SDS011;20865;43.312;27.152;2022-09-09T05:25:24;10.20;;;4.08;;
34657;SDS011;20865;43.312;27.152;2022-09-09T05:27:52;8.80;;;3.22;;
34657;SDS011;20865;43.312;27.152;2022-09-09T05:30:20;9.53;;;3.33;;
34657;SDS011;20865;43.312;27.152;2022-09-09T05:32:50;6.12;;;2.85;;
34657;SDS011;20865;43.312;27.152;2022-09-09T05:35:17;4.92;;;2.87;;
34657;SDS011;20865;43.312;27.152;2022-09-09T05:37:46;9.08;;;2.90;;
34657;SDS011;20865;43.312;27.152;2022-09-09T05:40:13;13.38;;;2.83;;
34657;SDS011;20865;43.312;27.152;2022-09-09T05:42:41;5.35;;;2.90;;
34657;SDS011;20865;43.312;27.152;2022-09-09T05:45:08;29.57;;;3.27;;
34657;SDS011;20865;43.312;27.152;2022-09-09T05:47:37;16.67;;;2.98;;
34657;SDS011;20865;43.312;27.152;2022-09-09T05:50:04;8.60;;;2.58;;
34657;SDS011;20865;43.312;27.152;2022-09-09T05:52:33;4.97;;;2.55;;
34657;SDS011;20865;43.312;27.152;2022-09-09T05:55:00;6.10;;;2.70;;
34657;SDS011;20865;43.312;27.152;2022-09-09T05:57:30;3.92;;;2.47;;
34657;SDS011;20865;43.312;27.152;2022-09-09T05:59:57;4.85;;;2.27;;
34657;SDS011;20865;43.312;27.152;2022-09-09T06:02:25;5.60;;;2.65;;
34657;SDS011;20865;43.312;27.152;2022-09-09T06:04:53;9.60;;;3.02;;
34657;SDS011;20865;43.312;27.152;2022-09-09T06:07:21;12.10;;;2.62;;
34657;SDS011;20865;43.312;27.152;2022-09-09T06:09:49;6.33;;;2.70;;
34657;SDS011;20865;43.312;27.152;2022-09-09T06:12:17;7.75;;;2.40;;
34657;SDS011;20865;43.312;27.152;2022-09-09T06:14:46;10.60;;;2.80;;
34657;SDS011;20865;43.312;27.152;2022-09-09T06:17:14;6.92;;;2.30;;
34657;SDS011;20865;43.312;27.152;2022-09-09T06:19:42;6.67;;;2.27;;
34657;SDS011;20865;43.312;27.152;2022-09-09T06:22:10;6.90;;;2.15;;
34657;SDS011;20865;43.312;27.152;2022-09-09T06:24:38;3.17;;;1.90;;
34657;SDS011;20865;43.312;27.152;2022-09-09T06:27:07;4.35;;;1.80;;
34657;SDS011;20865;43.312;27.152;2022-09-09T06:29:36;6.83;;;1.92;;
34657;SDS011;20865;43.312;27.152;2022-09-09T06:32:04;6.33;;;2.02;;
34657;SDS011;20865;43.312;27.152;2022-09-09T06:34:33;4.33;;;1.95;;
34657;SDS011;20865;43.312;27.152;2022-09-09T06:37:02;3.62;;;2.00;;
34657;SDS011;20865;43.312;27.152;2022-09-09T06:39:30;4.90;;;2.15;;
34657;SDS011;20865;43.312;27.152;2022-09-09T06:41:57;8.63;;;2.15;;
34657;SDS011;20865;43.312;27.152;2022-09-09T06:44:25;5.62;;;2.17;;
34657;SDS011;20865;43.312;27.152;2022-09-09T06:46:53;10.40;;;2.25;;
34657;SDS011;20865;43.312;27.152;2022-09-09T06:49:20;4.72;;;1.90;;
34657;SDS011;20865;43.312;27.152;2022-09-09T06:51:48;3.70;;;1.95;;
34657;SDS011;20865;43.312;27.152;2022-09-09T06:54:17;8.50;;;1.60;;
34657;SDS011;20865;43.312;27.152;2022-09-09T06:56:45;3.90;;;1.90;;
34657;SDS011;20865;43.312;27.152;2022-09-09T06:59:15;11.15;;;2.25;;
34657;SDS011;20865;43.312;27.152;2022-09-09T07:01:43;5.37;;;1.57;;
34657;SDS011;20865;43.312;27.152;2022-09-09T07:04:12;7.50;;;2.05;;
34657;SDS011;20865;43.312;27.152;2022-09-09T07:06:41;3.42;;;1.50;;
34657;SDS011;20865;43.312;27.152;2022-09-09T07:09:12;3.83;;;1.80;;
34657;SDS011;20865;43.312;27.152;2022-09-09T07:11:46;2.85;;;2.00;;
34657;SDS011;20865;43.312;27.152;2022-09-09T07:14:14;5.70;;;1.95;;
34657;SDS011;20865;43.312;27.152;2022-09-09T07:16:42;4.12;;;1.92;;
34657;SDS011;20865;43.312;27.152;2022-09-09T07:19:11;3.25;;;1.85;;
34657;SDS011;20865;43.312;27.152;2022-09-09T07:21:40;2.50;;;1.80;;
34657;SDS011;20865;43.312;27.152;2022-09-09T07:24:08;5.70;;;1.90;;
34657;SDS011;20865;43.312;27.152;2022-09-09T07:26:36;2.90;;;1.70;;
34657;SDS011;20865;43.312;27.152;2022-09-09T07:29:05;3.85;;;1.75;;
34657;SDS011;20865;43.312;27.152;2022-09-09T07:31:34;3.15;;;1.67;;
34657;SDS011;20865;43.312;27.152;2022-09-09T07:34:03;8.73;;;2.35;;
34657;SDS011;20865;43.312;27.152;2022-09-09T07:36:33;6.30;;;2.10;;
34657;SDS011;20865;43.312;27.152;2022-09-09T07:39:04;5.12;;;1.92;;
34657;SDS011;20865;43.312;27.152;2022-09-09T07:41:34;4.53;;;1.82;;
34657;SDS011;20865;43.312;27.152;2022-09-09T07:44:10;11.15;;;2.10;;
34657;SDS011;20865;43.312;27.152;2022-09-09T07:46:34;4.83;;;2.08;;
34657;SDS011;20865;43.312;27.152;2022-09-09T07:49:05;5.67;;;1.90;;
34657;SDS011;20865;43.312;27.152;2022-09-09T07:51:34;5.10;;;1.80;;
34657;SDS011;20865;43.312;27.152;2022-09-09T07:54:05;5.47;;;2.00;;
34657;SDS011;20865;43.312;27.152;2022-09-09T07:56:34;6.70;;;2.20;;
34657;SDS011;20865;43.312;27.152;2022-09-09T07:59:03;3.27;;;1.82;;
34657;SDS011;20865;43.312;27.152;2022-09-09T08:01:32;3.67;;;2.05;;
34657;SDS011;20865;43.312;27.152;2022-09-09T08:04:04;8.33;;;1.95;;
34657;SDS011;20865;43.312;27.152;2022-09-09T08:06:38;6.12;;;2.30;;
34657;SDS011;20865;43.312;27.152;2022-09-09T08:09:07;4.45;;;1.75;;
34657;SDS011;20865;43.312;27.152;2022-09-09T08:11:36;4.60;;;2.00;;
34657;SDS011;20865;43.312;27.152;2022-09-09T08:14:06;3.90;;;2.02;;
34657;SDS011;20865;43.312;27.152;2022-09-09T08:16:40;3.62;;;1.80;;
34657;SDS011;20865;43.312;27.152;2022-09-09T08:19:09;4.83;;;2.00;;
34657;SDS011;20865;43.312;27.152;2022-09-09T08:21:38;8.60;;;2.35;;
34657;SDS011;20865;43.312;27.152;2022-09-09T08:24:07;3.22;;;1.98;;
34657;SDS011;20865;43.312;27.152;2022-09-09T08:26:41;8.10;;;2.05;;
34657;SDS011;20865;43.312;27.152;2022-09-09T08:29:09;4.65;;;2.02;;
34657;SDS011;20865;43.312;27.152;2022-09-09T08:31:40;1.87;;;1.67;;
34657;SDS011;20865;43.312;27.152;2022-09-09T08:34:16;6.10;;;2.08;;
34657;SDS011;20865;43.312;27.152;2022-09-09T08:36:47;7.00;;;2.47;;
34657;SDS011;20865;43.312;27.152;2022-09-09T08:39:17;3.42;;;1.82;;
34657;SDS011;20865;43.312;27.152;2022-09-09T08:55:50;6.80;;;2.20;;
34657;SDS011;20865;43.312;27.152;2022-09-09T08:58:31;5.28;;;2.25;;
34657;SDS011;20865;43.312;27.152;2022-09-09T09:09:38;3.37;;;2.17;;
34657;SDS011;20865;43.312;27.152;2022-09-09T09:12:23;5.92;;;2.05;;
34657;SDS011;20865;43.312;27.152;2022-09-09T09:14:52;6.25;;;2.40;;
34657;SDS011;20865;43.312;27.152;2022-09-09T09:17:23;5.00;;;2.00;;
34657;SDS011;20865;43.312;27.152;2022-09-09T09:19:53;5.05;;;2.00;;
34657;SDS011;20865;43.312;27.152;2022-09-09T09:22:21;4.33;;;2.00;;
34657;SDS011;20865;43.312;27.152;2022-09-09T09:27:57;6.47;;;2.30;;
34657;SDS011;20865;43.312;27.152;2022-09-09T09:30:34;8.43;;;2.12;;
34657;SDS011;20865;43.312;27.152;2022-09-09T09:35:51;5.30;;;2.17;;
34657;SDS011;20865;43.312;27.152;2022-09-09T09:38:24;6.90;;;2.27;;
34657;SDS011;20865;43.312;27.152;2022-09-09T09:40:53;4.37;;;2.55;;
34657;SDS011;20865;43.312;27.152;2022-09-09T09:43:27;4.87;;;2.47;;
34657;SDS011;20865;43.312;27.152;2022-09-09T09:46:17;2.83;;;2.15;;
34657;SDS011;20865;43.312;27.152;2022-09-09T09:48:37;6.95;;;2.65;;
34657;SDS011;20865;43.312;27.152;2022-09-09T09:51:08;11.50;;;2.20;;
34657;SDS011;20865;43.312;27.152;2022-09-09T09:53:39;19.85;;;2.60;;
34657;SDS011;20865;43.312;27.152;2022-09-09T09:56:11;4.67;;;2.00;;
34657;SDS011;20865;43.312;27.152;2022-09-09T10:01:22;6.78;;;2.10;;
34657;SDS011;20865;43.312;27.152;2022-09-09T10:03:54;4.45;;;2.08;;
34657;SDS011;20865;43.312;27.152;2022-09-09T10:06:29;5.50;;;2.22;;
34657;SDS011;20865;43.312;27.152;2022-09-09T10:08:58;4.25;;;2.22;;
34657;SDS011;20865;43.312;27.152;2022-09-09T10:11:30;5.50;;;2.22;;
34657;SDS011;20865;43.312;27.152;2022-09-09T10:14:21;2.60;;;2.08;;
34657;SDS011;20865;43.312;27.152;2022-09-09T10:25:12;9.90;;;2.30;;
34657;SDS011;20865;43.312;27.152;2022-09-09T10:33:28;7.25;;;2.25;;
34657;SDS011;20865;43.312;27.152;2022-09-09T10:36:19;4.03;;;2.20;;
34657;SDS011;20865;43.312;27.152;2022-09-09T10:39:04;6.55;;;2.60;;
34657;SDS011;20865;43.312;27.152;2022-09-09T10:44:22;5.30;;;2.62;;
34657;SDS011;20865;43.312;27.152;2022-09-09T10:56:07;4.65;;;2.40;;
34657;SDS011;20865;43.312;27.152;2022-09-09T10:58:34;3.92;;;2.30;;
34657;SDS011;20865;43.312;27.152;2022-09-09T11:01:20;7.70;;;2.50;;
34657;SDS011;20865;43.312;27.152;2022-09-09T11:04:00;8.10;;;2.50;;
34657;SDS011;20865;43.312;27.152;2022-09-09T11:06:29;7.45;;;2.40;;
34657;SDS011;20865;43.312;27.152;2022-09-09T11:08:59;14.15;;;2.67;;
34657;SDS011;20865;43.312;27.152;2022-09-09T11:11:43;5.62;;;2.00;;
34657;SDS011;20865;43.312;27.152;2022-09-09T11:14:22;6.03;;;2.30;;
34657;SDS011;20865;43.312;27.152;2022-09-09T11:17:17;4.40;;;2.20;;
34657;SDS011;20865;43.312;27.152;2022-09-09T11:19:48;18.00;;;2.55;;
34657;SDS011;20865;43.312;27.152;2022-09-09T11:22:20;4.30;;;2.50;;
34657;SDS011;20865;43.312;27.152;2022-09-09T11:24:59;11.75;;;2.60;;
34657;SDS011;20865;43.312;27.152;2022-09-09T11:27:50;6.95;;;2.85;;
34657;SDS011;20865;43.312;27.152;2022-09-09T11:30:36;4.45;;;2.33;;
34657;SDS011;20865;43.312;27.152;2022-09-09T11:38:54;2.90;;;2.35;;
34657;SDS011;20865;43.312;27.152;2022-09-09T11:41:32;3.92;;;2.67;;
34657;SDS011;20865;43.312;27.152;2022-09-09T11:43:56;6.37;;;2.30;;
34657;SDS011;20865;43.312;27.152;2022-09-09T11:46:31;7.42;;;2.45;;
34657;SDS011;20865;43.312;27.152;2022-09-09T11:51:30;11.88;;;2.30;;
34657;SDS011;20865;43.312;27.152;2022-09-09T11:56:55;4.65;;;2.02;;
34657;SDS011;20865;43.312;27.152;2022-09-09T11:59:24;4.15;;;2.40;;
34657;SDS011;20865;43.312;27.152;2022-09-09T12:01:55;6.45;;;2.20;;
34657;SDS011;20865;43.312;27.152;2022-09-09T12:04:32;7.10;;;2.35;;
34657;SDS011;20865;43.312;27.152;2022-09-09T12:14:55;4.08;;;2.20;;
34657;SDS011;20865;43.312;27.152;2022-09-09T12:17:25;6.08;;;2.45;;
34657;SDS011;20865;43.312;27.152;2022-09-09T12:22:58;7.28;;;2.35;;
34657;SDS011;20865;43.312;27.152;2022-09-09T12:25:19;9.65;;;2.37;;
34657;SDS011;20865;43.312;27.152;2022-09-09T12:28:01;8.98;;;2.60;;
34657;SDS011;20865;43.312;27.152;2022-09-09T12:30:56;17.55;;;3.60;;
34657;SDS011;20865;43.312;27.152;2022-09-09T12:33:43;17.82;;;3.00;;
34657;SDS011;20865;43.312;27.152;2022-09-09T12:36:19;6.08;;;2.08;;
34657;SDS011;20865;43.312;27.152;2022-09-09T12:38:43;3.17;;;2.25;;
34657;SDS011;20865;43.312;27.152;2022-09-09T12:43:50;3.12;;;2.20;;
34657;SDS011;20865;43.312;27.152;2022-09-09T12:48:51;3.42;;;2.50;;
34657;SDS011;20865;43.312;27.152;2022-09-09T12:51:24;4.03;;;1.75;;
34657;SDS011;20865;43.312;27.152;2022-09-09T12:53:56;6.63;;;2.10;;
34657;SDS011;20865;43.312;27.152;2022-09-09T12:56:26;2.92;;;2.30;;
34657;SDS011;20865;43.312;27.152;2022-09-09T12:58:56;7.87;;;2.30;;
34657;SDS011;20865;43.312;27.152;2022-09-09T13:01:26;2.30;;;2.10;;
34657;SDS011;20865;43.312;27.152;2022-09-09T13:03:55;11.12;;;2.87;;
34657;SDS011;20865;43.312;27.152;2022-09-09T13:06:24;10.45;;;2.12;;
34657;SDS011;20865;43.312;27.152;2022-09-09T13:08:56;2.98;;;2.10;;
34657;SDS011;20865;43.312;27.152;2022-09-09T13:11:28;8.30;;;2.20;;
34657;SDS011;20865;43.312;27.152;2022-09-09T13:13:57;4.42;;;2.30;;
34657;SDS011;20865;43.312;27.152;2022-09-09T13:16:29;2.42;;;1.82;;
34657;SDS011;20865;43.312;27.152;2022-09-09T13:19:02;4.87;;;2.10;;
34657;SDS011;20865;43.312;27.152;2022-09-09T13:24:07;12.03;;;2.50;;
34657;SDS011;20865;43.312;27.152;2022-09-09T13:26:54;8.48;;;2.27;;
34657;SDS011;20865;43.312;27.152;2022-09-09T13:29:28;11.50;;;2.10;;
34657;SDS011;20865;43.312;27.152;2022-09-09T13:32:04;4.55;;;2.42;;
34657;SDS011;20865;43.312;27.152;2022-09-09T13:34:34;5.55;;;2.10;;
34657;SDS011;20865;43.312;27.152;2022-09-09T13:37:03;5.70;;;2.10;;
34657;SDS011;20865;43.312;27.152;2022-09-09T13:39:36;4.53;;;1.95;;
34657;SDS011;20865;43.312;27.152;2022-09-09T13:42:04;5.20;;;2.02;;
34657;SDS011;20865;43.312;27.152;2022-09-09T13:44:36;3.25;;;1.90;;
34657;SDS011;20865;43.312;27.152;2022-09-09T13:47:20;8.15;;;2.17;;
34657;SDS011;20865;43.312;27.152;2022-09-09T13:49:50;2.58;;;1.98;;
34657;SDS011;20865;43.312;27.152;2022-09-09T13:52:18;7.47;;;2.37;;
34657;SDS011;20865;43.312;27.152;2022-09-09T13:54:48;6.58;;;2.00;;
34657;SDS011;20865;43.312;27.152;2022-09-09T13:57:23;4.65;;;1.85;;
34657;SDS011;20865;43.312;27.152;2022-09-09T13:59:52;3.12;;;2.08;;
34657;SDS011;20865;43.312;27.152;2022-09-09T14:02:23;3.67;;;1.77;;
34657;SDS011;20865;43.312;27.152;2022-09-09T14:04:51;3.05;;;1.50;;
34657;SDS011;20865;43.312;27.152;2022-09-09T14:07:20;5.17;;;1.70;;
34657;SDS011;20865;43.312;27.152;2022-09-09T14:09:48;3.87;;;1.92;;
34657;SDS011;20865;43.312;27.152;2022-09-09T14:12:17;3.12;;;1.72;;
34657;SDS011;20865;43.312;27.152;2022-09-09T14:14:45;3.22;;;1.70;;
34657;SDS011;20865;43.312;27.152;2022-09-09T14:17:13;5.08;;;1.80;;
34657;SDS011;20865;43.312;27.152;2022-09-09T14:19:40;5.70;;;1.60;;
34657;SDS011;20865;43.312;27.152;2022-09-09T14:22:08;5.42;;;1.67;;
34657;SDS011;20865;43.312;27.152;2022-09-09T14:24:36;9.58;;;2.98;;
34657;SDS011;20865;43.312;27.152;2022-09-09T14:27:03;5.33;;;1.67;;
34657;SDS011;20865;43.312;27.152;2022-09-09T14:29:32;10.80;;;2.15;;
34657;SDS011;20865;43.312;27.152;2022-09-09T14:31:59;4.35;;;1.57;;
34657;SDS011;20865;43.312;27.152;2022-09-09T14:34:27;3.15;;;1.60;;
34657;SDS011;20865;43.312;27.152;2022-09-09T14:36:54;20.37;;;2.37;;
34657;SDS011;20865;43.312;27.152;2022-09-09T14:39:22;5.50;;;1.40;;
34657;SDS011;20865;43.312;27.152;2022-09-09T14:41:49;7.83;;;1.50;;
34657;SDS011;20865;43.312;27.152;2022-09-09T14:44:17;3.27;;;1.60;;
34657;SDS011;20865;43.312;27.152;2022-09-09T14:46:45;2.20;;;1.52;;
34657;SDS011;20865;43.312;27.152;2022-09-09T14:49:13;3.30;;;1.70;;
34657;SDS011;20865;43.312;27.152;2022-09-09T14:51:41;3.60;;;1.30;;
34657;SDS011;20865;43.312;27.152;2022-09-09T14:54:08;5.72;;;1.27;;
34657;SDS011;20865;43.312;27.152;2022-09-09T14:56:36;7.60;;;1.60;;
34657;SDS011;20865;43.312;27.152;2022-09-09T14:59:04;4.85;;;1.52;;
34657;SDS011;20865;43.312;27.152;2022-09-09T15:01:32;6.65;;;2.10;;
34657;SDS011;20865;43.312;27.152;2022-09-09T15:04:00;5.35;;;2.02;;
34657;SDS011;20865;43.312;27.152;2022-09-09T15:06:31;5.60;;;2.00;;
34657;SDS011;20865;43.312;27.152;2022-09-09T15:09:01;4.37;;;1.50;;
34657;SDS011;20865;43.312;27.152;2022-09-09T15:11:31;5.97;;;1.42;;
34657;SDS011;20865;43.312;27.152;2022-09-09T15:14:01;4.28;;;1.85;;
34657;SDS011;20865;43.312;27.152;2022-09-09T15:16:29;3.62;;;1.80;;
34657;SDS011;20865;43.312;27.152;2022-09-09T15:19:00;5.80;;;1.95;;
34657;SDS011;20865;43.312;27.152;2022-09-09T15:21:29;10.98;;;1.60;;
34657;SDS011;20865;43.312;27.152;2022-09-09T15:23:59;3.65;;;1.87;;
34657;SDS011;20865;43.312;27.152;2022-09-09T15:26:26;14.10;;;1.50;;
34657;SDS011;20865;43.312;27.152;2022-09-09T15:28:55;7.45;;;2.00;;
34657;SDS011;20865;43.312;27.152;2022-09-09T15:31:26;5.90;;;1.65;;
34657;SDS011;20865;43.312;27.152;2022-09-09T15:33:59;4.10;;;1.60;;
34657;SDS011;20865;43.312;27.152;2022-09-09T15:36:32;4.05;;;1.10;;
34657;SDS011;20865;43.312;27.152;2022-09-09T15:39:02;7.92;;;1.62;;
34657;SDS011;20865;43.312;27.152;2022-09-09T15:41:31;3.42;;;1.70;;
34657;SDS011;20865;43.312;27.152;2022-09-09T15:43:59;7.10;;;2.17;;
34657;SDS011;20865;43.312;27.152;2022-09-09T15:49:08;5.10;;;1.70;;
34657;SDS011;20865;43.312;27.152;2022-09-09T15:51:32;2.80;;;1.50;;
34657;SDS011;20865;43.312;27.152;2022-09-09T15:54:00;6.35;;;2.05;;
34657;SDS011;20865;43.312;27.152;2022-09-09T15:56:28;6.33;;;1.80;;
34657;SDS011;20865;43.312;27.152;2022-09-09T15:58:57;5.97;;;1.60;;
34657;SDS011;20865;43.312;27.152;2022-09-09T16:01:26;3.47;;;1.92;;
34657;SDS011;20865;43.312;27.152;2022-09-09T16:03:53;12.15;;;1.60;;
34657;SDS011;20865;43.312;27.152;2022-09-09T16:06:21;5.53;;;1.50;;
34657;SDS011;20865;43.312;27.152;2022-09-09T16:08:51;4.95;;;1.32;;
34657;SDS011;20865;43.312;27.152;2022-09-09T16:11:20;4.35;;;1.80;;
34657;SDS011;20865;43.312;27.152;2022-09-09T16:13:50;3.60;;;1.57;;
34657;SDS011;20865;43.312;27.152;2022-09-09T16:16:19;4.17;;;1.62;;
34657;SDS011;20865;43.312;27.152;2022-09-09T16:18:50;6.35;;;1.87;;
34657;SDS011;20865;43.312;27.152;2022-09-09T16:23:51;6.58;;;1.65;;
34657;SDS011;20865;43.312;27.152;2022-09-09T16:26:19;4.83;;;2.10;;
34657;SDS011;20865;43.312;27.152;2022-09-09T16:28:47;6.45;;;1.77;;
34657;SDS011;20865;43.312;27.152;2022-09-09T16:31:19;9.73;;;2.22;;
34657;SDS011;20865;43.312;27.152;2022-09-09T16:33:49;8.23;;;2.05;;
34657;SDS011;20865;43.312;27.152;2022-09-09T16:36:21;9.85;;;2.17;;
34657;SDS011;20865;43.312;27.152;2022-09-09T16:38:54;3.95;;;2.08;;
34657;SDS011;20865;43.312;27.152;2022-09-09T16:41:27;5.17;;;1.95;;
34657;SDS011;20865;43.312;27.152;2022-09-09T16:43:59;4.72;;;2.27;;
34657;SDS011;20865;43.312;27.152;2022-09-09T16:46:32;6.22;;;2.02;;
34657;SDS011;20865;43.312;27.152;2022-09-09T16:49:01;11.22;;;2.87;;
34657;SDS011;20865;43.312;27.152;2022-09-09T16:51:32;8.20;;;2.15;;
34657;SDS011;20865;43.312;27.152;2022-09-09T16:54:02;5.08;;;1.87;;
34657;SDS011;20865;43.312;27.152;2022-09-09T16:56:33;5.40;;;2.55;;
34657;SDS011;20865;43.312;27.152;2022-09-09T16:59:07;12.28;;;2.65;;
34657;SDS011;20865;43.312;27.152;2022-09-09T17:01:40;8.13;;;2.40;;
34657;SDS011;20865;43.312;27.152;2022-09-09T17:04:13;8.98;;;2.37;;
34657;SDS011;20865;43.312;27.152;2022-09-09T17:06:45;3.52;;;2.02;;
34657;SDS011;20865;43.312;27.152;2022-09-09T17:09:18;6.72;;;2.60;;